sensor_id;sensor_type;location;lat;lon;timestamp;temperature;humidity
8979;DHT22;4524;51.364;5.448;2023-02-12T00:01:02;9.20;99.90
8979;DHT22;4524;51.364;5.448;2023-02-12T00:03:34;9.20;99.90
8979;DHT22;4524;51.364;5.448;2023-02-12T00:06:03;9.20;99.90
8979;DHT22;4524;51.364;5.448;2023-02-12T00:08:33;9.20;99.90
8979;DHT22;4524;51.364;5.448;2023-02-12T00:11:07;9.10;99.90
8979;DHT22;4524;51.364;5.448;2023-02-12T00:13:35;9.10;99.90
8979;DHT22;4524;51.364;5.448;2023-02-12T00:16:05;9.10;99.90
8979;DHT22;4524;51.364;5.448;2023-02-12T00:18:33;9.10;99.90
8979;DHT22;4524;51.364;5.448;2023-02-12T00:21:01;9.20;99.90
8979;DHT22;4524;51.364;5.448;2023-02-12T00:23:30;9.10;99.90
8979;DHT22;4524;51.364;5.448;2023-02-12T00:25:59;9.10;99.90
8979;DHT22;4524;51.364;5.448;2023-02-12T00:28:27;9.10;99.90
8979;DHT22;4524;51.364;5.448;2023-02-12T00:31:14;9.00;99.90
8979;DHT22;4524;51.364;5.448;2023-02-12T00:33:43;9.10;99.90
8979;DHT22;4524;51.364;5.448;2023-02-12T00:36:14;9.10;99.90
8979;DHT22;4524;51.364;5.448;2023-02-12T00:38:43;9.10;99.90
8979;DHT22;4524;51.364;5.448;2023-02-12T00:41:13;9.10;99.90
8979;DHT22;4524;51.364;5.448;2023-02-12T00:43:40;9.10;99.90
8979;DHT22;4524;51.364;5.448;2023-02-12T00:46:08;9.10;99.90
8979;DHT22;4524;51.364;5.448;2023-02-12T00:48:36;9.00;99.90
8979;DHT22;4524;51.364;5.448;2023-02-12T00:51:05;9.00;99.90
8979;DHT22;4524;51.364;5.448;2023-02-12T00:53:33;9.00;99.90
8979;DHT22;4524;51.364;5.448;2023-02-12T00:56:01;9.00;99.90
8979;DHT22;4524;51.364;5.448;2023-02-12T00:58:31;9.00;99.90
8979;DHT22;4524;51.364;5.448;2023-02-12T01:00:59;8.90;99.90
8979;DHT22;4524;51.364;5.448;2023-02-12T01:03:27;9.00;99.90
8979;DHT22;4524;51.364;5.448;2023-02-12T01:05:55;9.00;99.90
8979;DHT22;4524;51.364;5.448;2023-02-12T01:08:24;9.00;99.90
8979;DHT22;4524;51.364;5.448;2023-02-12T01:10:56;9.00;99.90
8979;DHT22;4524;51.364;5.448;2023-02-12T01:13:25;9.00;99.90
8979;DHT22;4524;51.364;5.448;2023-02-12T01:16:06;9.00;99.90
8979;DHT22;4524;51.364;5.448;2023-02-12T01:18:36;9.00;99.90
8979;DHT22;4524;51.364;5.448;2023-02-12T01:21:09;9.00;99.90
8979;DHT22;4524;51.364;5.448;2023-02-12T01:23:37;9.00;99.90
8979;DHT22;4524;51.364;5.448;2023-02-12T01:26:05;9.00;99.90
8979;DHT22;4524;51.364;5.448;2023-02-12T01:28:36;8.90;99.90
8979;DHT22;4524;51.364;5.448;2023-02-12T01:31:09;8.90;99.90
8979;DHT22;4524;51.364;5.448;2023-02-12T01:33:37;9.00;99.90
8979;DHT22;4524;51.364;5.448;2023-02-12T01:36:06;8.90;99.90
8979;DHT22;4524;51.364;5.448;2023-02-12T01:38:35;9.00;99.90
8979;DHT22;4524;51.364;5.448;2023-02-12T01:41:04;8.90;99.90
8979;DHT22;4524;51.364;5.448;2023-02-12T01:43:32;9.00;99.90
8979;DHT22;4524;51.364;5.448;2023-02-12T01:46:01;8.90;99.90
8979;DHT22;4524;51.364;5.448;2023-02-12T01:48:34;9.00;99.90
8979;DHT22;4524;51.364;5.448;2023-02-12T01:51:03;8.90;99.90
8979;DHT22;4524;51.364;5.448;2023-02-12T01:53:35;9.00;99.90
8979;DHT22;4524;51.364;5.448;2023-02-12T01:56:05;8.90;99.90
8979;DHT22;4524;51.364;5.448;2023-02-12T01:58:37;8.90;99.90
8979;DHT22;4524;51.364;5.448;2023-02-12T02:01:12;8.90;99.90
8979;DHT22;4524;51.364;5.448;2023-02-12T02:03:43;8.80;99.90
8979;DHT22;4524;51.364;5.448;2023-02-12T02:06:15;8.90;99.90
8979;DHT22;4524;51.364;5.448;2023-02-12T02:08:44;8.80;99.90
8979;DHT22;4524;51.364;5.448;2023-02-12T02:11:13;8.90;99.90
8979;DHT22;4524;51.364;5.448;2023-02-12T02:13:59;8.90;99.90
8979;DHT22;4524;51.364;5.448;2023-02-12T02:17:00;8.90;99.90
8979;DHT22;4524;51.364;5.448;2023-02-12T02:19:46;8.90;99.90
8979;DHT22;4524;51.364;5.448;2023-02-12T02:22:23;8.90;99.90
8979;DHT22;4524;51.364;5.448;2023-02-12T02:25:20;8.80;99.90
8979;DHT22;4524;51.364;5.448;2023-02-12T02:28:01;8.90;99.90
8979;DHT22;4524;51.364;5.448;2023-02-12T02:30:34;8.90;99.90
8979;DHT22;4524;51.364;5.448;2023-02-12T02:33:14;8.70;99.90
8979;DHT22;4524;51.364;5.448;2023-02-12T02:35:51;8.80;99.90
8979;DHT22;4524;51.364;5.448;2023-02-12T02:38:25;8.80;99.90
8979;DHT22;4524;51.364;5.448;2023-02-12T02:41:02;8.80;99.90
8979;DHT22;4524;51.364;5.448;2023-02-12T02:43:35;8.70;99.90
8979;DHT22;4524;51.364;5.448;2023-02-12T02:46:09;8.60;99.90
8979;DHT22;4524;51.364;5.448;2023-02-12T02:48:42;8.60;99.90
8979;DHT22;4524;51.364;5.448;2023-02-12T02:51:14;8.60;99.90
8979;DHT22;4524;51.364;5.448;2023-02-12T02:53:46;8.70;99.90
8979;DHT22;4524;51.364;5.448;2023-02-12T02:56:18;8.70;99.90
8979;DHT22;4524;51.364;5.448;2023-02-12T02:58:50;8.60;99.90
8979;DHT22;4524;51.364;5.448;2023-02-12T03:01:23;8.60;99.90
8979;DHT22;4524;51.364;5.448;2023-02-12T03:03:58;8.70;99.90
8979;DHT22;4524;51.364;5.448;2023-02-12T03:06:33;8.70;99.90
8979;DHT22;4524;51.364;5.448;2023-02-12T03:09:10;8.60;99.90
8979;DHT22;4524;51.364;5.448;2023-02-12T03:11:39;8.60;99.90
8979;DHT22;4524;51.364;5.448;2023-02-12T03:14:11;8.70;99.90
8979;DHT22;4524;51.364;5.448;2023-02-12T03:16:49;8.70;99.90
8979;DHT22;4524;51.364;5.448;2023-02-12T03:19:20;8.50;99.90
8979;DHT22;4524;51.364;5.448;2023-02-12T03:21:52;8.60;99.90
8979;DHT22;4524;51.364;5.448;2023-02-12T03:24:27;8.60;99.90
8979;DHT22;4524;51.364;5.448;2023-02-12T03:27:01;8.60;99.90
8979;DHT22;4524;51.364;5.448;2023-02-12T03:29:31;8.60;99.90
8979;DHT22;4524;51.364;5.448;2023-02-12T03:32:12;8.50;99.90
8979;DHT22;4524;51.364;5.448;2023-02-12T03:34:48;8.60;99.90
8979;DHT22;4524;51.364;5.448;2023-02-12T03:37:21;8.60;99.90
8979;DHT22;4524;51.364;5.448;2023-02-12T03:39:55;8.60;99.90
8979;DHT22;4524;51.364;5.448;2023-02-12T03:42:31;8.60;99.90
8979;DHT22;4524;51.364;5.448;2023-02-12T03:45:07;8.70;99.90
8979;DHT22;4524;51.364;5.448;2023-02-12T03:47:43;8.70;99.90
8979;DHT22;4524;51.364;5.448;2023-02-12T03:50:14;8.70;99.90
8979;DHT22;4524;51.364;5.448;2023-02-12T03:52:44;8.70;99.90
8979;DHT22;4524;51.364;5.448;2023-02-12T03:55:13;8.70;99.90
8979;DHT22;4524;51.364;5.448;2023-02-12T03:57:44;8.70;99.90
8979;DHT22;4524;51.364;5.448;2023-02-12T04:00:16;8.70;99.90
8979;DHT22;4524;51.364;5.448;2023-02-12T04:02:49;8.70;99.90
8979;DHT22;4524;51.364;5.448;2023-02-12T04:05:20;8.70;99.90
8979;DHT22;4524;51.364;5.448;2023-02-12T04:07:49;8.60;99.90
8979;DHT22;4524;51.364;5.448;2023-02-12T04:10:18;8.60;99.90
8979;DHT22;4524;51.364;5.448;2023-02-12T04:12:53;8.50;99.90
8979;DHT22;4524;51.364;5.448;2023-02-12T04:15:36;8.50;99.90
8979;DHT22;4524;51.364;5.448;2023-02-12T04:18:14;8.60;99.90
8979;DHT22;4524;51.364;5.448;2023-02-12T04:20:52;8.50;99.90
8979;DHT22;4524;51.364;5.448;2023-02-12T04:23:39;8.40;99.90
8979;DHT22;4524;51.364;5.448;2023-02-12T04:26:19;8.50;99.90
8979;DHT22;4524;51.364;5.448;2023-02-12T04:28:57;8.50;99.90
8979;DHT22;4524;51.364;5.448;2023-02-12T04:31:29;8.50;99.90
8979;DHT22;4524;51.364;5.448;2023-02-12T04:34:06;8.50;99.90
8979;DHT22;4524;51.364;5.448;2023-02-12T04:36:40;8.50;99.90
8979;DHT22;4524;51.364;5.448;2023-02-12T04:39:16;8.50;99.90
8979;DHT22;4524;51.364;5.448;2023-02-12T04:41:47;8.40;99.90
8979;DHT22;4524;51.364;5.448;2023-02-12T04:44:17;8.40;99.90
8979;DHT22;4524;51.364;5.448;2023-02-12T04:46:46;8.40;99.90
8979;DHT22;4524;51.364;5.448;2023-02-12T04:49:16;8.50;99.90
8979;DHT22;4524;51.364;5.448;2023-02-12T04:51:45;8.50;99.90
8979;DHT22;4524;51.364;5.448;2023-02-12T04:54:14;8.50;99.90
8979;DHT22;4524;51.364;5.448;2023-02-12T04:56:43;8.50;99.90
8979;DHT22;4524;51.364;5.448;2023-02-12T04:59:11;8.40;99.90
8979;DHT22;4524;51.364;5.448;2023-02-12T05:01:40;8.40;99.90
8979;DHT22;4524;51.364;5.448;2023-02-12T05:04:10;8.40;99.90
8979;DHT22;4524;51.364;5.448;2023-02-12T05:06:41;8.40;99.90
8979;DHT22;4524;51.364;5.448;2023-02-12T05:09:13;8.40;99.90
8979;DHT22;4524;51.364;5.448;2023-02-12T05:11:41;8.50;99.90
8979;DHT22;4524;51.364;5.448;2023-02-12T05:14:09;8.50;99.90
8979;DHT22;4524;51.364;5.448;2023-02-12T05:16:37;8.60;99.90
8979;DHT22;4524;51.364;5.448;2023-02-12T05:19:05;8.50;99.90
8979;DHT22;4524;51.364;5.448;2023-02-12T05:21:35;8.50;99.90
8979;DHT22;4524;51.364;5.448;2023-02-12T05:24:05;8.50;99.90
8979;DHT22;4524;51.364;5.448;2023-02-12T05:26:33;8.40;99.90
8979;DHT22;4524;51.364;5.448;2023-02-12T05:29:01;8.40;99.90
8979;DHT22;4524;51.364;5.448;2023-02-12T05:31:30;8.50;99.90
8979;DHT22;4524;51.364;5.448;2023-02-12T05:33:58;8.50;99.90
8979;DHT22;4524;51.364;5.448;2023-02-12T05:36:26;8.50;99.90
8979;DHT22;4524;51.364;5.448;2023-02-12T05:38:56;8.50;99.90
8979;DHT22;4524;51.364;5.448;2023-02-12T05:41:26;8.50;99.90
8979;DHT22;4524;51.364;5.448;2023-02-12T05:43:54;8.50;99.90
8979;DHT22;4524;51.364;5.448;2023-02-12T05:46:22;8.40;99.90
8979;DHT22;4524;51.364;5.448;2023-02-12T05:48:50;8.50;99.90
8979;DHT22;4524;51.364;5.448;2023-02-12T05:51:23;8.50;99.90
8979;DHT22;4524;51.364;5.448;2023-02-12T05:53:54;8.60;99.90
8979;DHT22;4524;51.364;5.448;2023-02-12T05:56:24;8.50;99.90
8979;DHT22;4524;51.364;5.448;2023-02-12T05:58:55;8.50;99.90
8979;DHT22;4524;51.364;5.448;2023-02-12T06:01:25;8.60;99.90
8979;DHT22;4524;51.364;5.448;2023-02-12T06:03:54;8.50;99.90
8979;DHT22;4524;51.364;5.448;2023-02-12T06:06:24;8.50;99.90
8979;DHT22;4524;51.364;5.448;2023-02-12T06:08:52;8.60;99.90
8979;DHT22;4524;51.364;5.448;2023-02-12T06:11:20;8.60;99.90
8979;DHT22;4524;51.364;5.448;2023-02-12T06:13:48;8.60;99.90
8979;DHT22;4524;51.364;5.448;2023-02-12T06:16:19;8.60;99.90
8979;DHT22;4524;51.364;5.448;2023-02-12T06:18:48;8.60;99.90
8979;DHT22;4524;51.364;5.448;2023-02-12T06:21:19;8.60;99.90
8979;DHT22;4524;51.364;5.448;2023-02-12T06:23:48;8.60;99.90
8979;DHT22;4524;51.364;5.448;2023-02-12T06:26:16;8.60;99.90
8979;DHT22;4524;51.364;5.448;2023-02-12T06:28:44;8.60;99.90
8979;DHT22;4524;51.364;5.448;2023-02-12T06:31:24;8.60;99.90
8979;DHT22;4524;51.364;5.448;2023-02-12T06:33:53;8.60;99.90
8979;DHT22;4524;51.364;5.448;2023-02-12T06:36:22;8.60;99.90
8979;DHT22;4524;51.364;5.448;2023-02-12T06:38:51;8.60;99.90
8979;DHT22;4524;51.364;5.448;2023-02-12T06:41:19;8.60;99.90
8979;DHT22;4524;51.364;5.448;2023-02-12T06:43:48;8.50;99.90
8979;DHT22;4524;51.364;5.448;2023-02-12T06:46:17;8.50;99.90
8979;DHT22;4524;51.364;5.448;2023-02-12T06:48:46;8.50;99.90
8979;DHT22;4524;51.364;5.448;2023-02-12T06:51:16;8.50;99.90
8979;DHT22;4524;51.364;5.448;2023-02-12T06:53:47;8.50;99.90
8979;DHT22;4524;51.364;5.448;2023-02-12T06:56:16;8.50;99.90
8979;DHT22;4524;51.364;5.448;2023-02-12T06:58:45;8.50;99.90
8979;DHT22;4524;51.364;5.448;2023-02-12T07:01:15;8.60;99.90
8979;DHT22;4524;51.364;5.448;2023-02-12T07:03:49;8.50;99.90
8979;DHT22;4524;51.364;5.448;2023-02-12T07:06:17;8.50;99.90
8979;DHT22;4524;51.364;5.448;2023-02-12T07:08:45;8.50;99.90
8979;DHT22;4524;51.364;5.448;2023-02-12T07:11:14;8.60;99.90
8979;DHT22;4524;51.364;5.448;2023-02-12T07:13:42;8.60;99.90
8979;DHT22;4524;51.364;5.448;2023-02-12T07:16:13;8.60;99.90
8979;DHT22;4524;51.364;5.448;2023-02-12T07:18:42;8.60;99.90
8979;DHT22;4524;51.364;5.448;2023-02-12T07:21:13;8.60;99.90
8979;DHT22;4524;51.364;5.448;2023-02-12T07:23:44;8.50;99.90
8979;DHT22;4524;51.364;5.448;2023-02-12T07:26:16;8.50;99.90
8979;DHT22;4524;51.364;5.448;2023-02-12T07:28:44;8.60;99.90
8979;DHT22;4524;51.364;5.448;2023-02-12T07:31:14;8.50;99.90
8979;DHT22;4524;51.364;5.448;2023-02-12T07:33:43;8.50;99.90
8979;DHT22;4524;51.364;5.448;2023-02-12T07:36:14;8.60;99.90
8979;DHT22;4524;51.364;5.448;2023-02-12T07:38:43;8.60;99.90
8979;DHT22;4524;51.364;5.448;2023-02-12T07:41:12;8.60;99.90
8979;DHT22;4524;51.364;5.448;2023-02-12T07:43:41;8.70;99.90
8979;DHT22;4524;51.364;5.448;2023-02-12T07:46:11;8.70;99.90
8979;DHT22;4524;51.364;5.448;2023-02-12T07:48:40;8.70;99.90
8979;DHT22;4524;51.364;5.448;2023-02-12T07:51:10;8.70;99.90
8979;DHT22;4524;51.364;5.448;2023-02-12T07:53:39;8.60;99.90
8979;DHT22;4524;51.364;5.448;2023-02-12T07:56:09;8.70;99.90
8979;DHT22;4524;51.364;5.448;2023-02-12T07:58:38;8.80;99.90
8979;DHT22;4524;51.364;5.448;2023-02-12T08:01:14;8.70;99.90
8979;DHT22;4524;51.364;5.448;2023-02-12T08:03:43;8.80;99.90
8979;DHT22;4524;51.364;5.448;2023-02-12T08:06:13;8.80;99.90
8979;DHT22;4524;51.364;5.448;2023-02-12T08:08:43;8.80;99.90
8979;DHT22;4524;51.364;5.448;2023-02-12T08:11:12;8.90;99.90
8979;DHT22;4524;51.364;5.448;2023-02-12T08:13:41;8.80;99.90
8979;DHT22;4524;51.364;5.448;2023-02-12T08:16:11;8.70;99.90
8979;DHT22;4524;51.364;5.448;2023-02-12T08:18:39;8.80;99.90
8979;DHT22;4524;51.364;5.448;2023-02-12T08:21:09;8.80;99.90
8979;DHT22;4524;51.364;5.448;2023-02-12T08:23:37;8.80;99.90
8979;DHT22;4524;51.364;5.448;2023-02-12T08:26:09;8.80;99.90
8979;DHT22;4524;51.364;5.448;2023-02-12T08:28:38;8.80;99.90
8979;DHT22;4524;51.364;5.448;2023-02-12T08:31:09;8.90;99.90
8979;DHT22;4524;51.364;5.448;2023-02-12T08:33:37;8.90;99.90
8979;DHT22;4524;51.364;5.448;2023-02-12T08:36:07;9.00;99.90
8979;DHT22;4524;51.364;5.448;2023-02-12T08:38:36;9.00;99.90
8979;DHT22;4524;51.364;5.448;2023-02-12T08:41:08;9.00;99.90
8979;DHT22;4524;51.364;5.448;2023-02-12T08:43:38;9.10;99.90
8979;DHT22;4524;51.364;5.448;2023-02-12T08:46:08;9.10;99.90
8979;DHT22;4524;51.364;5.448;2023-02-12T08:48:37;9.20;99.90
8979;DHT22;4524;51.364;5.448;2023-02-12T08:51:06;9.20;99.90
8979;DHT22;4524;51.364;5.448;2023-02-12T08:53:35;9.10;99.90
8979;DHT22;4524;51.364;5.448;2023-02-12T08:56:04;9.10;99.90
8979;DHT22;4524;51.364;5.448;2023-02-12T08:58:34;9.20;99.90
8979;DHT22;4524;51.364;5.448;2023-02-12T09:01:03;9.20;99.90
8979;DHT22;4524;51.364;5.448;2023-02-12T09:03:31;9.20;99.90
8979;DHT22;4524;51.364;5.448;2023-02-12T09:06:01;9.20;99.90
8979;DHT22;4524;51.364;5.448;2023-02-12T09:08:29;9.20;99.90
8979;DHT22;4524;51.364;5.448;2023-02-12T09:10:58;9.20;99.90
8979;DHT22;4524;51.364;5.448;2023-02-12T09:13:26;9.30;99.90
8979;DHT22;4524;51.364;5.448;2023-02-12T09:15:55;9.30;99.90
8979;DHT22;4524;51.364;5.448;2023-02-12T09:18:23;9.40;99.90
8979;DHT22;4524;51.364;5.448;2023-02-12T09:20:51;9.40;99.90
8979;DHT22;4524;51.364;5.448;2023-02-12T09:23:19;9.40;99.90
8979;DHT22;4524;51.364;5.448;2023-02-12T09:25:47;9.40;99.90
8979;DHT22;4524;51.364;5.448;2023-02-12T09:28:15;9.30;99.90
8979;DHT22;4524;51.364;5.448;2023-02-12T09:30:43;9.30;99.90
8979;DHT22;4524;51.364;5.448;2023-02-12T09:33:13;9.40;99.90
8979;DHT22;4524;51.364;5.448;2023-02-12T09:35:41;9.50;99.90
8979;DHT22;4524;51.364;5.448;2023-02-12T09:38:09;9.50;99.90
8979;DHT22;4524;51.364;5.448;2023-02-12T09:40:42;9.60;99.90
8979;DHT22;4524;51.364;5.448;2023-02-12T09:43:17;9.70;99.90
8979;DHT22;4524;51.364;5.448;2023-02-12T09:45:50;9.60;99.90
8979;DHT22;4524;51.364;5.448;2023-02-12T09:48:38;9.70;99.90
8979;DHT22;4524;51.364;5.448;2023-02-12T09:51:10;9.80;99.90
8979;DHT22;4524;51.364;5.448;2023-02-12T09:53:40;9.80;99.90
8979;DHT22;4524;51.364;5.448;2023-02-12T09:56:18;9.80;99.90
8979;DHT22;4524;51.364;5.448;2023-02-12T09:58:51;9.90;99.90
8979;DHT22;4524;51.364;5.448;2023-02-12T10:01:20;10.00;99.90
8979;DHT22;4524;51.364;5.448;2023-02-12T10:03:51;10.00;99.90
8979;DHT22;4524;51.364;5.448;2023-02-12T10:06:21;10.10;99.90
8979;DHT22;4524;51.364;5.448;2023-02-12T10:09:01;10.10;99.90
8979;DHT22;4524;51.364;5.448;2023-02-12T10:14:44;10.20;99.90
8979;DHT22;4524;51.364;5.448;2023-02-12T10:17:22;10.20;99.90
8979;DHT22;4524;51.364;5.448;2023-02-12T10:20:13;10.30;99.90
8979;DHT22;4524;51.364;5.448;2023-02-12T10:22:46;10.40;99.90
8979;DHT22;4524;51.364;5.448;2023-02-12T10:25:25;10.40;99.90
8979;DHT22;4524;51.364;5.448;2023-02-12T10:27:56;10.40;99.90
8979;DHT22;4524;51.364;5.448;2023-02-12T10:30:38;10.40;99.90
8979;DHT22;4524;51.364;5.448;2023-02-12T10:33:13;10.40;99.90
8979;DHT22;4524;51.364;5.448;2023-02-12T10:35:48;10.40;99.90
8979;DHT22;4524;51.364;5.448;2023-02-12T10:38:20;10.40;99.90
8979;DHT22;4524;51.364;5.448;2023-02-12T10:40:49;10.50;99.90
8979;DHT22;4524;51.364;5.448;2023-02-12T10:43:17;10.50;99.90
8979;DHT22;4524;51.364;5.448;2023-02-12T10:45:45;10.60;99.90
8979;DHT22;4524;51.364;5.448;2023-02-12T10:48:18;10.50;99.90
8979;DHT22;4524;51.364;5.448;2023-02-12T10:50:57;10.50;99.90
8979;DHT22;4524;51.364;5.448;2023-02-12T10:53:31;10.60;99.90
8979;DHT22;4524;51.364;5.448;2023-02-12T10:56:11;10.60;99.90
8979;DHT22;4524;51.364;5.448;2023-02-12T10:58:41;10.50;99.90
8979;DHT22;4524;51.364;5.448;2023-02-12T11:01:20;10.50;99.90
8979;DHT22;4524;51.364;5.448;2023-02-12T11:03:48;10.60;99.90
8979;DHT22;4524;51.364;5.448;2023-02-12T11:06:20;10.60;99.90
8979;DHT22;4524;51.364;5.448;2023-02-12T11:08:49;10.60;99.90
8979;DHT22;4524;51.364;5.448;2023-02-12T11:11:20;10.60;99.90
8979;DHT22;4524;51.364;5.448;2023-02-12T11:13:56;10.50;99.90
8979;DHT22;4524;51.364;5.448;2023-02-12T11:16:27;10.60;99.90
8979;DHT22;4524;51.364;5.448;2023-02-12T11:19:01;10.60;99.90
8979;DHT22;4524;51.364;5.448;2023-02-12T11:21:32;10.60;99.90
8979;DHT22;4524;51.364;5.448;2023-02-12T11:24:20;10.70;99.90
8979;DHT22;4524;51.364;5.448;2023-02-12T11:26:49;10.70;99.90
8979;DHT22;4524;51.364;5.448;2023-02-12T11:29:18;10.80;99.90
8979;DHT22;4524;51.364;5.448;2023-02-12T11:31:59;10.80;99.90
8979;DHT22;4524;51.364;5.448;2023-02-12T11:34:27;10.80;99.90
8979;DHT22;4524;51.364;5.448;2023-02-12T11:36:58;10.80;99.90
8979;DHT22;4524;51.364;5.448;2023-02-12T11:39:29;10.80;99.90
8979;DHT22;4524;51.364;5.448;2023-02-12T11:42:00;10.90;99.90
8979;DHT22;4524;51.364;5.448;2023-02-12T11:44:33;10.90;99.90
8979;DHT22;4524;51.364;5.448;2023-02-12T11:47:05;10.90;99.90
8979;DHT22;4524;51.364;5.448;2023-02-12T11:49:38;11.00;99.90
8979;DHT22;4524;51.364;5.448;2023-02-12T11:52:19;11.00;99.90
8979;DHT22;4524;51.364;5.448;2023-02-12T11:54:49;10.80;99.90
8979;DHT22;4524;51.364;5.448;2023-02-12T11:57:38;10.80;99.90
8979;DHT22;4524;51.364;5.448;2023-02-12T12:00:13;10.80;99.90
8979;DHT22;4524;51.364;5.448;2023-02-12T12:02:54;10.70;99.90
8979;DHT22;4524;51.364;5.448;2023-02-12T12:05:37;10.70;99.90
8979;DHT22;4524;51.364;5.448;2023-02-12T12:08:13;10.90;99.90
8979;DHT22;4524;51.364;5.448;2023-02-12T12:10:46;10.90;99.90
8979;DHT22;4524;51.364;5.448;2023-02-12T12:13:20;11.00;99.90
8979;DHT22;4524;51.364;5.448;2023-02-12T12:15:58;11.00;99.90
8979;DHT22;4524;51.364;5.448;2023-02-12T12:18:46;11.10;99.90
8979;DHT22;4524;51.364;5.448;2023-02-12T12:21:56;11.10;99.90
8979;DHT22;4524;51.364;5.448;2023-02-12T12:24:35;11.20;99.90
8979;DHT22;4524;51.364;5.448;2023-02-12T12:27:11;11.10;99.90
8979;DHT22;4524;51.364;5.448;2023-02-12T12:30:04;11.10;99.90
8979;DHT22;4524;51.364;5.448;2023-02-12T12:32:38;11.10;99.90
8979;DHT22;4524;51.364;5.448;2023-02-12T12:35:10;11.10;99.90
8979;DHT22;4524;51.364;5.448;2023-02-12T12:37:44;11.00;99.90
8979;DHT22;4524;51.364;5.448;2023-02-12T12:40:34;10.90;99.90
8979;DHT22;4524;51.364;5.448;2023-02-12T12:43:12;10.90;99.90
8979;DHT22;4524;51.364;5.448;2023-02-12T12:46:04;11.00;99.90
8979;DHT22;4524;51.364;5.448;2023-02-12T12:51:36;11.10;99.90
8979;DHT22;4524;51.364;5.448;2023-02-12T12:54:23;11.10;99.90
8979;DHT22;4524;51.364;5.448;2023-02-12T12:57:04;11.10;99.90
8979;DHT22;4524;51.364;5.448;2023-02-12T12:59:47;11.00;99.90
8979;DHT22;4524;51.364;5.448;2023-02-12T13:06:12;11.00;99.90
8979;DHT22;4524;51.364;5.448;2023-02-12T13:09:00;10.90;99.90
8979;DHT22;4524;51.364;5.448;2023-02-12T13:11:38;10.90;99.90
8979;DHT22;4524;51.364;5.448;2023-02-12T13:14:19;10.80;99.90
8979;DHT22;4524;51.364;5.448;2023-02-12T13:16:55;10.80;99.90
8979;DHT22;4524;51.364;5.448;2023-02-12T13:19:34;10.80;99.90
8979;DHT22;4524;51.364;5.448;2023-02-12T13:22:09;10.90;99.90
8979;DHT22;4524;51.364;5.448;2023-02-12T13:24:42;10.90;99.90
8979;DHT22;4524;51.364;5.448;2023-02-12T13:27:14;10.90;99.90
8979;DHT22;4524;51.364;5.448;2023-02-12T13:29:49;11.00;99.90
8979;DHT22;4524;51.364;5.448;2023-02-12T13:32:23;11.00;99.90
8979;DHT22;4524;51.364;5.448;2023-02-12T13:34:54;10.90;99.90
8979;DHT22;4524;51.364;5.448;2023-02-12T13:37:32;11.00;99.90
8979;DHT22;4524;51.364;5.448;2023-02-12T13:40:03;11.00;99.90
8979;DHT22;4524;51.364;5.448;2023-02-12T13:42:45;11.00;99.90
8979;DHT22;4524;51.364;5.448;2023-02-12T13:45:23;10.90;99.90
8979;DHT22;4524;51.364;5.448;2023-02-12T13:50:56;11.00;99.90
8979;DHT22;4524;51.364;5.448;2023-02-12T13:53:30;11.00;99.90
8979;DHT22;4524;51.364;5.448;2023-02-12T13:56:09;11.00;99.90
8979;DHT22;4524;51.364;5.448;2023-02-12T13:58:45;10.90;99.90
8979;DHT22;4524;51.364;5.448;2023-02-12T14:01:40;10.70;99.90
8979;DHT22;4524;51.364;5.448;2023-02-12T14:04:25;10.70;99.90
8979;DHT22;4524;51.364;5.448;2023-02-12T14:07:00;10.80;99.90
8979;DHT22;4524;51.364;5.448;2023-02-12T14:09:33;10.80;99.90
8979;DHT22;4524;51.364;5.448;2023-02-12T14:12:05;10.70;99.90
8979;DHT22;4524;51.364;5.448;2023-02-12T14:14:36;10.80;99.90
8979;DHT22;4524;51.364;5.448;2023-02-12T14:17:40;10.70;99.90
8979;DHT22;4524;51.364;5.448;2023-02-12T14:20:27;10.70;99.90
8979;DHT22;4524;51.364;5.448;2023-02-12T14:25:44;10.60;99.90
8979;DHT22;4524;51.364;5.448;2023-02-12T14:28:22;10.70;99.90
8979;DHT22;4524;51.364;5.448;2023-02-12T14:31:20;10.70;99.90
8979;DHT22;4524;51.364;5.448;2023-02-12T14:33:52;10.70;99.90
8979;DHT22;4524;51.364;5.448;2023-02-12T14:36:42;10.60;99.90
8979;DHT22;4524;51.364;5.448;2023-02-12T14:39:28;10.60;99.90
8979;DHT22;4524;51.364;5.448;2023-02-12T14:45:27;10.50;99.90
8979;DHT22;4524;51.364;5.448;2023-02-12T14:47:55;10.60;99.90
8979;DHT22;4524;51.364;5.448;2023-02-12T14:50:37;10.60;99.90
8979;DHT22;4524;51.364;5.448;2023-02-12T14:53:20;10.60;99.90
8979;DHT22;4524;51.364;5.448;2023-02-12T14:55:51;10.60;99.90
8979;DHT22;4524;51.364;5.448;2023-02-12T14:58:22;10.60;99.90
8979;DHT22;4524;51.364;5.448;2023-02-12T15:00:53;10.50;99.90
8979;DHT22;4524;51.364;5.448;2023-02-12T15:03:31;10.40;99.90
8979;DHT22;4524;51.364;5.448;2023-02-12T15:06:07;10.40;99.90
8979;DHT22;4524;51.364;5.448;2023-02-12T15:08:42;10.40;99.90
8979;DHT22;4524;51.364;5.448;2023-02-12T15:11:25;10.50;99.90
8979;DHT22;4524;51.364;5.448;2023-02-12T15:13:59;10.40;99.90
8979;DHT22;4524;51.364;5.448;2023-02-12T15:16:42;10.40;99.90
8979;DHT22;4524;51.364;5.448;2023-02-12T15:19:22;10.50;99.90
8979;DHT22;4524;51.364;5.448;2023-02-12T15:21:55;10.50;99.90
8979;DHT22;4524;51.364;5.448;2023-02-12T15:24:25;10.60;99.90
8979;DHT22;4524;51.364;5.448;2023-02-12T15:26:54;10.60;99.90
8979;DHT22;4524;51.364;5.448;2023-02-12T15:29:25;10.60;99.90
8979;DHT22;4524;51.364;5.448;2023-02-12T15:31:55;10.60;99.90
8979;DHT22;4524;51.364;5.448;2023-02-12T15:34:27;10.70;99.90
8979;DHT22;4524;51.364;5.448;2023-02-12T15:37:00;10.60;99.90
8979;DHT22;4524;51.364;5.448;2023-02-12T15:39:36;10.60;99.90
8979;DHT22;4524;51.364;5.448;2023-02-12T15:42:25;10.60;99.90
8979;DHT22;4524;51.364;5.448;2023-02-12T15:45:15;10.60;99.90
8979;DHT22;4524;51.364;5.448;2023-02-12T15:47:44;10.60;99.90
8979;DHT22;4524;51.364;5.448;2023-02-12T15:50:14;10.60;99.90
8979;DHT22;4524;51.364;5.448;2023-02-12T15:52:45;10.50;99.90
8979;DHT22;4524;51.364;5.448;2023-02-12T15:55:15;10.50;99.90
8979;DHT22;4524;51.364;5.448;2023-02-12T15:57:48;10.50;99.90
8979;DHT22;4524;51.364;5.448;2023-02-12T16:00:27;10.40;99.90
8979;DHT22;4524;51.364;5.448;2023-02-12T16:02:56;10.40;99.90
8979;DHT22;4524;51.364;5.448;2023-02-12T16:05:24;10.40;99.90
8979;DHT22;4524;51.364;5.448;2023-02-12T16:07:54;10.40;99.90
8979;DHT22;4524;51.364;5.448;2023-02-12T16:10:22;10.40;99.90
8979;DHT22;4524;51.364;5.448;2023-02-12T16:12:53;10.40;99.90
8979;DHT22;4524;51.364;5.448;2023-02-12T16:15:27;10.40;99.90
8979;DHT22;4524;51.364;5.448;2023-02-12T16:17:57;10.40;99.90
8979;DHT22;4524;51.364;5.448;2023-02-12T16:20:28;10.40;99.90
8979;DHT22;4524;51.364;5.448;2023-02-12T16:22:57;10.40;99.90
8979;DHT22;4524;51.364;5.448;2023-02-12T16:25:29;10.40;99.90
8979;DHT22;4524;51.364;5.448;2023-02-12T16:28:02;10.40;99.90
8979;DHT22;4524;51.364;5.448;2023-02-12T16:30:32;10.40;99.90
8979;DHT22;4524;51.364;5.448;2023-02-12T16:33:05;10.40;99.90
8979;DHT22;4524;51.364;5.448;2023-02-12T16:35:59;10.30;99.90
8979;DHT22;4524;51.364;5.448;2023-02-12T16:38:39;10.30;99.90
8979;DHT22;4524;51.364;5.448;2023-02-12T16:41:20;10.40;99.90
8979;DHT22;4524;51.364;5.448;2023-02-12T16:43:50;10.40;99.90
8979;DHT22;4524;51.364;5.448;2023-02-12T16:46:44;10.40;99.90
8979;DHT22;4524;51.364;5.448;2023-02-12T16:49:14;10.30;99.90
8979;DHT22;4524;51.364;5.448;2023-02-12T16:51:43;10.20;99.90
8979;DHT22;4524;51.364;5.448;2023-02-12T16:54:26;10.30;99.90
8979;DHT22;4524;51.364;5.448;2023-02-12T16:56:55;10.20;99.90
8979;DHT22;4524;51.364;5.448;2023-02-12T16:59:24;10.20;99.90
8979;DHT22;4524;51.364;5.448;2023-02-12T17:01:56;10.20;99.90
8979;DHT22;4524;51.364;5.448;2023-02-12T17:04:25;10.20;99.90
8979;DHT22;4524;51.364;5.448;2023-02-12T17:06:56;10.20;99.90
8979;DHT22;4524;51.364;5.448;2023-02-12T17:09:26;10.20;99.90